Time;durP1;ratioP1;P1;durP2;ratioP2;P2;SDS_P1;SDS_P2;PMS_P1;PMS_P2;Temp;Humidity;BMP_temperature;BMP_pressure;BME280_temperature;BME280_humidity;BME280_pressure;Samples;Min_cycle;Max_cycle;Signal;HPM_P1;HPM_P2
2022/01/28 00:01:24;;;;;;;19.85;3.47;;;;;;;3.83;98.17;102696.91;4851256;29;20726;-66
2022/01/28 00:03:49;;;;;;;22.10;3.38;;;;;;;3.82;98.29;102701.28;4849990;29;20107;-67
2022/01/28 00:06:15;;;;;;;18.70;2.90;;;;;;;3.82;98.25;102695.16;4852079;29;20826;-67
2022/01/28 00:08:41;;;;;;;17.48;3.28;;;;;;;3.81;98.16;102696.88;4851252;29;20022;-66
2022/01/28 00:11:06;;;;;;;16.92;2.67;;;;;;;3.80;98.12;102697.75;4849167;29;20065;-67
2022/01/28 00:13:36;;;;;;;21.20;3.42;;;;;;;3.79;97.65;102696.00;4850799;29;20056;-67
2022/01/28 00:19:24;;;;;;;26.98;3.20;;;;;;;3.79;98.18;102696.00;4849740;29;20033;-66
2022/01/28 00:38:07;;;;;;;19.50;2.90;;;;;;;3.89;97.07;102717.94;4851049;29;20753;-66
2022/01/28 00:40:33;;;;;;;23.85;3.80;;;;;;;3.91;96.47;102717.13;4850592;29;20068;-66
2022/01/28 00:42:59;;;;;;;21.95;3.10;;;;;;;3.93;96.58;102719.75;4850401;29;20043;-66
2022/01/28 00:45:25;;;;;;;20.88;4.22;;;;;;;3.97;95.85;102723.31;4838212;29;20029;-65
2022/01/28 00:47:50;;;;;;;24.35;3.97;;;;;;;3.97;95.81;102720.69;4848762;29;20215;-65
2022/01/28 00:50:16;;;;;;;21.80;3.30;;;;;;;3.96;95.42;102719.78;4836542;29;20044;-65
2022/01/28 00:52:42;;;;;;;16.10;2.80;;;;;;;3.95;95.87;102723.28;4850067;29;20084;-65
2022/01/28 00:55:08;;;;;;;19.63;2.92;;;;;;;3.93;95.06;102725.00;4851047;29;20230;-65
2022/01/28 00:57:34;;;;;;;18.65;3.45;;;;;;;3.90;95.58;102724.94;4852585;29;20044;-65
2022/01/28 00:59:59;;;;;;;18.50;2.88;;;;;;;3.88;95.20;102722.31;4850053;29;20161;-65
2022/01/28 01:02:25;;;;;;;21.35;2.92;;;;;;;3.85;94.69;102727.50;4851279;29;20048;-65
2022/01/28 01:04:50;;;;;;;17.48;2.72;;;;;;;3.83;94.67;102718.75;4848516;29;20443;-66
2022/01/28 01:07:16;;;;;;;12.82;2.58;;;;;;;3.81;94.36;102720.47;4850092;29;20076;-65
2022/01/28 01:09:41;;;;;;;16.65;2.35;;;;;;;3.77;94.69;102726.53;4846482;29;20149;-65
2022/01/28 01:12:07;;;;;;;13.30;2.10;;;;;;;3.73;93.99;102728.25;4851580;29;20041;-65
2022/01/28 01:14:33;;;;;;;16.77;2.55;;;;;;;3.70;94.53;102743.03;4850017;29;20041;-65
2022/01/28 01:19:42;;;;;;;15.95;2.50;;;;;;;3.63;93.83;102745.56;4850055;29;20109;-65
2022/01/28 01:22:09;;;;;;;17.27;3.05;;;;;;;3.60;94.25;102753.38;4850951;29;20041;-65
2022/01/28 01:24:46;;;;;;;15.40;2.47;;;;;;;3.59;94.06;102756.00;4851817;29;20233;-65
2022/01/28 01:27:11;;;;;;;24.63;2.78;;;;;;;3.57;94.25;102766.44;4849996;29;20044;-65
2022/01/28 01:29:42;;;;;;;19.25;3.10;;;;;;;3.57;93.94;102779.53;4850485;29;20568;-65
2022/01/28 01:32:13;;;;;;;25.17;3.13;;;;;;;3.58;94.25;102790.88;4851080;29;20747;-65
2022/01/28 01:34:38;;;;;;;15.30;2.75;;;;;;;3.61;94.32;102780.47;4848833;29;20133;-65
2022/01/28 01:37:04;;;;;;;12.43;2.28;;;;;;;3.65;94.34;102782.28;4850868;29;20689;-65
2022/01/28 01:39:33;;;;;;;12.68;2.53;;;;;;;3.68;94.04;102784.94;4850788;29;20084;-65
2022/01/28 01:42:08;;;;;;;17.70;2.60;;;;;;;3.69;93.34;102785.81;4838368;29;20037;-66
2022/01/28 01:52:40;;;;;;;11.02;2.38;;;;;;;3.63;93.46;102821.53;4849747;29;20063;-66
2022/01/28 01:55:07;;;;;;;20.80;3.38;;;;;;;3.61;93.64;102833.75;4849298;29;20053;-66
2022/01/28 01:57:33;;;;;;;21.08;2.92;;;;;;;3.61;93.46;102844.22;4835064;29;20479;-66
2022/01/28 01:59:58;;;;;;;16.92;2.88;;;;;;;3.59;93.57;102840.69;4849719;29;20049;-66
2022/01/28 02:02:24;;;;;;;20.52;3.28;;;;;;;3.56;93.29;102843.25;4849710;29;20029;-66
2022/01/28 02:04:49;;;;;;;18.65;3.40;;;;;;;3.54;93.76;102844.94;4848412;29;20029;-66
2022/01/28 02:07:16;;;;;;;18.05;3.13;;;;;;;3.52;93.73;102854.53;4850241;29;20175;-66
2022/01/28 02:09:42;;;;;;;30.48;3.78;;;;;;;3.51;93.76;102853.66;4848709;29;20563;-66
2022/01/28 02:12:08;;;;;;;22.77;3.50;;;;;;;3.55;94.03;102864.19;4833431;29;21378;-67
2022/01/28 02:14:34;;;;;;;25.08;3.70;;;;;;;3.59;93.95;102861.63;4850085;29;20454;-66
2022/01/28 02:17:00;;;;;;;27.05;4.25;;;;;;;3.64;93.84;102865.22;4850549;29;20489;-66
2022/01/28 02:19:27;;;;;;;27.20;3.90;;;;;;;3.72;93.46;102862.72;4848908;29;20037;-66
2022/01/28 02:21:53;;;;;;;28.73;3.70;;;;;;;3.78;93.37;102864.56;4836090;29;20328;-67
2022/01/28 02:24:26;;;;;;;24.35;3.63;;;;;;;3.83;93.28;102862.91;4850969;29;20108;-67
2022/01/28 02:26:52;;;;;;;17.05;3.05;;;;;;;3.88;93.60;102874.31;4850865;29;20029;-67
2022/01/28 02:29:27;;;;;;;21.10;3.13;;;;;;;3.90;93.33;102872.59;4849241;29;20700;-66
2022/01/28 02:31:53;;;;;;;24.65;3.80;;;;;;;3.90;93.61;102863.84;4851031;29;20037;-66
2022/01/28 02:34:19;;;;;;;17.70;2.92;;;;;;;3.88;93.31;102868.19;4838443;29;20072;-67
2022/01/28 02:36:44;;;;;;;24.55;3.65;;;;;;;3.85;93.99;102869.03;4850736;29;20041;-67
2022/01/28 02:39:11;;;;;;;33.22;3.78;;;;;;;3.83;94.05;102886.47;4850093;29;20041;-67
2022/01/28 02:41:41;;;;;;;24.08;3.75;;;;;;;3.82;94.02;102886.44;4850042;29;20765;-66
2022/01/28 02:46:36;;;;;;;20.40;3.33;;;;;;;3.74;94.37;102887.22;4850664;29;20029;-67
2022/01/28 02:49:08;;;;;;;25.25;3.38;;;;;;;3.71;94.75;102888.91;4848566;29;20064;-66
2022/01/28 02:51:34;;;;;;;22.33;3.83;;;;;;;3.70;94.47;102887.13;4849558;29;20037;-67
2022/01/28 02:54:10;;;;;;;17.90;2.67;;;;;;;3.66;94.74;102900.16;4848243;29;20041;-66
2022/01/28 02:56:38;;;;;;;18.65;3.22;;;;;;;3.66;95.15;102896.69;4849800;29;20049;-66
2022/01/28 02:59:05;;;;;;;22.85;3.10;;;;;;;3.67;94.74;102901.94;4851092;29;20124;-65
2022/01/28 03:01:30;;;;;;;21.60;2.85;;;;;;;3.70;95.12;102897.63;4849951;29;20061;-65
2022/01/28 03:03:58;;;;;;;22.05;3.10;;;;;;;3.73;95.25;102903.78;4849020;29;20120;-65
2022/01/28 03:06:24;;;;;;;28.33;3.25;;;;;;;3.77;94.97;102907.34;4847468;29;20044;-65
2022/01/28 03:09:11;;;;;;;21.42;3.55;;;;;;;3.82;95.10;102908.31;4834130;29;20037;-65
2022/01/28 03:11:44;;;;;;;20.50;3.42;;;;;;;3.87;95.04;102911.84;4849917;29;20038;-66
2022/01/28 03:14:21;;;;;;;28.15;3.78;;;;;;;3.90;95.41;102919.78;4850145;29;20132;-65
2022/01/28 03:19:23;;;;;;;26.15;3.90;;;;;;;3.93;95.28;102919.81;4848561;29;20079;-65
2022/01/28 03:22:03;;;;;;;21.75;3.22;;;;;;;3.96;95.57;102919.00;4850689;29;20709;-65
2022/01/28 03:24:29;;;;;;;26.58;4.82;;;;;;;3.96;95.53;102920.75;4848564;29;20033;-66
2022/01/28 03:27:04;;;;;;;22.85;3.35;;;;;;;3.95;95.54;102922.47;4849567;29;20033;-65
2022/01/28 03:29:29;;;;;;;21.27;3.30;;;;;;;3.93;95.39;102927.69;4848904;29;20108;-65
2022/01/28 03:31:55;;;;;;;28.35;3.90;;;;;;;3.92;94.92;102928.53;4850058;29;20060;-66
2022/01/28 03:34:20;;;;;;;25.42;3.95;;;;;;;3.90;95.27;102932.88;4849049;29;20068;-65
2022/01/28 03:36:46;;;;;;;26.48;3.67;;;;;;;3.88;95.23;102926.72;4849708;29;20075;-65
2022/01/28 03:39:11;;;;;;;23.63;4.05;;;;;;;3.85;94.69;102939.78;4848649;29;20124;-66
2022/01/28 03:41:38;;;;;;;25.38;4.18;;;;;;;3.84;95.01;102945.00;4837535;29;20033;-66
2022/01/28 03:44:04;;;;;;;22.65;4.38;;;;;;;3.82;94.75;102944.09;4850290;29;20033;-66
2022/01/28 03:46:30;;;;;;;25.17;3.63;;;;;;;3.78;94.80;102944.06;4850207;29;20148;-66
2022/01/28 03:48:56;;;;;;;27.85;3.92;;;;;;;3.76;94.53;102939.66;4847683;29;20503;-65
2022/01/28 03:51:22;;;;;;;23.33;3.97;;;;;;;3.75;94.51;102958.81;4850592;29;20068;-66
2022/01/28 03:53:48;;;;;;;24.70;5.05;;;;;;;3.72;94.70;102951.81;4848814;29;20067;-66
2022/01/28 03:56:13;;;;;;;25.75;3.60;;;;;;;3.70;94.74;102939.53;4849006;29;20144;-66
2022/01/28 03:58:39;;;;;;;24.13;3.13;;;;;;;3.67;94.40;102954.31;4847420;29;20247;-66
2022/01/28 04:01:11;;;;;;;20.27;3.60;;;;;;;3.68;94.57;102955.22;4848701;29;20029;-67
2022/01/28 04:03:42;;;;;;;25.67;3.30;;;;;;;3.65;94.01;102944.72;4820363;29;20041;-66
2022/01/28 04:11:41;;;;;;;21.75;3.53;;;;;;;3.59;94.12;102958.56;4848122;29;20392;-66
2022/01/28 04:14:14;;;;;;;24.65;3.92;;;;;;;3.57;93.73;102956.75;4849206;29;20041;-66
2022/01/28 04:19:24;;;;;;;21.42;3.10;;;;;;;3.52;93.94;102978.53;4846192;29;20093;-66
2022/01/28 04:21:50;;;;;;;25.45;4.47;;;;;;;3.51;93.98;102988.97;4850895;29;20045;-66
2022/01/28 04:24:15;;;;;;;20.95;3.60;;;;;;;3.48;93.85;102987.19;4834527;29;20032;-66
2022/01/28 04:26:41;;;;;;;21.17;4.03;;;;;;;3.46;93.67;102985.38;4855053;29;20033;-66
2022/01/28 04:29:07;;;;;;;24.55;3.35;;;;;;;3.46;93.78;102990.63;4852410;29;20645;-66
2022/01/28 04:31:34;;;;;;;31.33;4.13;;;;;;;3.43;93.90;102994.06;4853430;29;20096;-66
2022/01/28 04:34:01;;;;;;;21.70;3.58;;;;;;;3.42;93.70;102994.91;4849332;29;20049;-66
2022/01/28 04:36:31;;;;;;;23.20;3.30;;;;;;;3.40;93.69;103002.75;4852119;29;20038;-66
2022/01/28 04:39:45;;;;;;;19.85;3.17;;;;;;;3.39;93.60;103021.94;4852045;29;20057;-66
2022/01/28 04:42:08;;;;;;;23.83;3.88;;;;;;;3.38;93.76;103021.91;4850199;29;20057;-66
2022/01/28 04:44:51;;;;;;;22.15;3.45;;;;;;;3.38;93.42;103022.78;4850932;29;20033;-66
2022/01/28 04:47:31;;;;;;;24.88;3.75;;;;;;;3.40;93.64;103031.53;4852110;29;20100;-66
2022/01/28 05:00:39;;;;;;;22.42;3.50;;;;;;;3.50;92.87;103040.47;4851071;29;20064;-66
2022/01/28 05:27:19;;;;;;;28.13;4.68;;;;;;;3.49;92.94;103082.38;4850289;29;20453;-66
2022/01/28 05:29:44;;;;;;;27.98;4.57;;;;;;;3.49;92.88;103082.38;4850432;29;20140;-66
2022/01/28 05:32:11;;;;;;;23.85;4.20;;;;;;;3.47;92.92;103081.44;4852129;29;20048;-66
2022/01/28 05:34:37;;;;;;;25.85;4.18;;;;;;;3.45;92.90;103072.66;4849900;29;20029;-66
2022/01/28 05:37:03;;;;;;;28.00;4.35;;;;;;;3.42;92.54;103073.47;4851028;29;20045;-66
2022/01/28 05:39:29;;;;;;;28.75;4.68;;;;;;;3.40;92.68;103070.81;4848859;29;20052;-66
2022/01/28 05:41:55;;;;;;;36.30;5.00;;;;;;;3.37;92.80;103081.25;4851110;29;20033;-66
2022/01/28 05:44:21;;;;;;;22.40;4.22;;;;;;;3.35;92.08;103080.34;4850865;29;20097;-66
2022/01/28 05:46:47;;;;;;;31.45;3.72;;;;;;;3.32;92.32;103077.66;4854424;29;20041;-66
2022/01/28 05:49:13;;;;;;;31.40;4.38;;;;;;;3.31;92.35;103085.50;4847940;29;20372;-66
2022/01/28 05:51:40;;;;;;;24.95;3.80;;;;;;;3.28;92.10;103093.28;4838959;29;20507;-66
2022/01/28 05:54:06;;;;;;;22.70;3.75;;;;;;;3.25;91.78;103092.38;4851120;29;20037;-66
2022/01/28 05:56:31;;;;;;;27.83;3.65;;;;;;;3.22;91.71;103092.28;4851197;29;20037;-66
2022/01/28 05:58:57;;;;;;;24.02;3.47;;;;;;;3.20;91.71;103109.69;4850511;29;20218;-66
2022/01/28 06:01:23;;;;;;;21.52;3.95;;;;;;;3.18;91.41;103116.66;4851547;29;20168;-66
2022/01/28 06:03:48;;;;;;;27.25;3.72;;;;;;;3.15;91.42;103119.19;4847834;29;20049;-66
2022/01/28 06:06:19;;;;;;;24.42;3.88;;;;;;;3.12;91.20;103117.38;4850758;29;22254;-66
2022/01/28 06:08:46;;;;;;;25.95;3.50;;;;;;;3.11;91.42;103123.47;4850777;29;20093;-66
2022/01/28 06:11:12;;;;;;;25.30;3.85;;;;;;;3.08;90.92;103133.88;4850825;29;20153;-66
2022/01/28 06:13:37;;;;;;;22.20;2.78;;;;;;;3.06;90.91;103142.53;4850589;29;20033;-66
2022/01/28 06:16:03;;;;;;;26.95;4.28;;;;;;;3.03;90.95;103145.06;4850529;29;20059;-66
2022/01/28 06:18:28;;;;;;;18.63;2.97;;;;;;;3.00;91.04;103138.06;4849156;29;20374;-66
2022/01/28 06:20:54;;;;;;;24.15;3.25;;;;;;;2.98;90.91;103144.97;4849898;29;20037;-66
2022/01/28 06:23:19;;;;;;;22.92;4.18;;;;;;;2.96;90.90;103154.53;4849334;29;20125;-66
2022/01/28 06:25:45;;;;;;;24.80;3.95;;;;;;;2.94;90.87;103159.72;4851692;29;20117;-66
2022/01/28 06:28:10;;;;;;;28.15;4.05;;;;;;;2.94;91.27;103169.31;4850483;29;20044;-66
2022/01/28 06:30:37;;;;;;;28.05;3.47;;;;;;;2.91;90.99;103169.22;4838443;29;20176;-66
2022/01/28 06:33:03;;;;;;;24.58;3.70;;;;;;;2.89;90.97;103182.25;4850870;29;20078;-66
2022/01/28 06:35:28;;;;;;;19.15;3.10;;;;;;;2.87;91.26;103176.13;4848959;29;20581;-65
2022/01/28 06:37:54;;;;;;;22.00;3.72;;;;;;;2.87;90.85;103180.50;4850492;29;20041;-65
2022/01/28 06:40:19;;;;;;;21.35;2.90;;;;;;;2.84;91.00;103176.06;4849943;29;20124;-66
2022/01/28 06:42:45;;;;;;;17.73;3.33;;;;;;;2.80;90.83;103177.72;4849009;29;20662;-65
2022/01/28 06:45:11;;;;;;;27.70;4.13;;;;;;;2.80;91.02;103175.09;4850953;29;20435;-66
2022/01/28 06:47:36;;;;;;;20.80;3.58;;;;;;;2.79;91.30;103170.69;4835761;29;20036;-66
2022/01/28 06:50:05;;;;;;;22.00;4.53;;;;;;;2.78;91.26;103163.69;4846838;29;20025;-65
2022/01/28 06:52:31;;;;;;;20.52;3.22;;;;;;;2.78;91.28;103170.69;4850373;29;20044;-66
2022/01/28 06:54:57;;;;;;;25.35;3.30;;;;;;;2.73;91.08;103170.56;4849844;29;20061;-65
2022/01/28 06:57:22;;;;;;;15.98;3.05;;;;;;;2.69;91.11;103179.16;4848572;29;20155;-65
2022/01/28 06:59:48;;;;;;;23.30;3.00;;;;;;;2.65;91.00;103172.09;4837689;29;20092;-65
2022/01/28 07:02:13;;;;;;;19.75;3.05;;;;;;;2.61;91.12;103186.81;4850040;29;20424;-65
2022/01/28 07:04:38;;;;;;;18.73;3.80;;;;;;;2.56;90.85;103181.47;4849740;29;20040;-65
2022/01/28 07:07:05;;;;;;;18.52;3.25;;;;;;;2.54;90.84;103187.50;4850843;29;20047;-66
2022/01/28 07:09:31;;;;;;;14.23;2.60;;;;;;;2.50;90.91;103189.16;4837933;29;20051;-66
2022/01/28 07:11:57;;;;;;;25.05;6.63;;;;;;;2.48;90.90;103189.97;4832790;29;20032;-65
2022/01/28 07:14:22;;;;;;;19.45;4.53;;;;;;;2.45;90.99;103196.00;4832941;29;20044;-65
2022/01/28 07:16:48;;;;;;;20.05;3.60;;;;;;;2.41;90.83;103194.16;4849470;29;20506;-67
2022/01/28 07:19:13;;;;;;;18.58;3.17;;;;;;;2.39;91.15;103201.09;4839664;29;20029;-65
2022/01/28 07:22:05;;;;;;;27.23;3.95;;;;;;;2.36;90.80;103214.97;4845140;29;20408;-66
2022/01/28 07:24:54;;;;;;;22.10;3.47;;;;;;;2.34;91.04;103218.38;4849591;29;20133;-65
2022/01/28 07:27:20;;;;;;;16.98;3.03;;;;;;;2.31;91.07;103221.78;4850023;29;20045;-65
2022/01/28 07:29:47;;;;;;;23.25;4.53;;;;;;;2.29;91.28;103224.34;4850214;29;20057;-66
2022/01/28 07:32:14;;;;;;;23.85;3.70;;;;;;;2.29;91.43;103231.31;4850170;29;20166;-65
2022/01/28 07:34:40;;;;;;;18.55;3.75;;;;;;;2.28;91.25;103239.97;4837841;29;20888;-65
2022/01/28 07:37:05;;;;;;;24.58;3.22;;;;;;;2.26;91.30;103241.69;4837826;29;20752;-65
2022/01/28 07:39:31;;;;;;;23.92;3.70;;;;;;;2.24;91.34;103246.84;4849378;29;20034;-66
2022/01/28 07:41:57;;;;;;;24.10;3.83;;;;;;;2.24;91.29;103249.47;4850382;29;20037;-66
2022/01/28 07:44:23;;;;;;;21.27;3.20;;;;;;;2.23;91.49;103260.78;4847739;29;20033;-65
2022/01/28 07:46:48;;;;;;;17.48;3.65;;;;;;;2.22;91.44;103265.97;4850648;29;20483;-65
2022/01/28 07:49:14;;;;;;;23.23;3.40;;;;;;;2.22;91.57;103272.06;4836458;29;20028;-65
2022/01/28 07:51:41;;;;;;;23.40;3.75;;;;;;;2.21;91.79;103275.53;4850314;29;20041;-65
2022/01/28 07:54:07;;;;;;;17.33;3.10;;;;;;;2.20;91.43;103281.63;4848826;29;20029;-65
2022/01/28 07:56:32;;;;;;;27.00;4.45;;;;;;;2.19;91.62;103282.47;4850722;29;20408;-65
2022/01/28 07:58:58;;;;;;;21.00;3.28;;;;;;;2.20;91.66;103284.22;4849682;29;20040;-65
2022/01/28 08:01:23;;;;;;;22.65;4.03;;;;;;;2.23;91.62;103288.66;4850235;29;20165;-68
2022/01/28 08:03:49;;;;;;;21.45;3.58;;;;;;;2.23;91.88;103289.53;4852040;29;20036;-67
2022/01/28 08:06:14;;;;;;;30.52;3.90;;;;;;;2.26;91.74;103288.75;4854719;29;20033;-65
2022/01/28 08:08:40;;;;;;;22.67;4.45;;;;;;;2.28;91.96;103277.47;4840902;29;20203;-65
2022/01/28 08:11:05;;;;;;;30.23;4.28;;;;;;;2.30;91.98;103280.16;4853005;29;20037;-65
2022/01/28 08:13:31;;;;;;;24.30;3.28;;;;;;;2.35;91.83;103285.50;4852396;29;20501;-66
2022/01/28 08:15:57;;;;;;;23.70;3.53;;;;;;;2.37;92.34;103286.41;4852867;29;20465;-65
2022/01/28 08:18:22;;;;;;;18.10;3.88;;;;;;;2.37;91.99;103302.13;4851595;29;20038;-66
2022/01/28 08:20:48;;;;;;;23.52;3.70;;;;;;;2.39;92.11;103297.84;4852029;29;20060;-64
2022/01/28 08:23:14;;;;;;;21.95;3.92;;;;;;;2.39;92.14;103290.00;4852964;29;20033;-64
2022/01/28 08:25:40;;;;;;;22.80;3.70;;;;;;;2.41;92.05;103294.38;4853322;29;20469;-65
2022/01/28 08:28:06;;;;;;;23.90;4.05;;;;;;;2.42;92.23;103297.91;4852735;29;20037;-65
2022/01/28 08:30:37;;;;;;;21.00;3.72;;;;;;;2.43;92.51;103297.06;4852130;29;20649;-65
2022/01/28 08:33:03;;;;;;;30.40;4.28;;;;;;;2.46;92.25;103306.72;4851930;29;20084;-65
2022/01/28 08:35:31;;;;;;;21.77;4.40;;;;;;;2.48;92.39;103311.16;4849833;29;20400;-65
2022/01/28 08:37:58;;;;;;;28.38;4.43;;;;;;;2.50;92.28;103324.28;4849901;29;20041;-65
2022/01/28 08:40:25;;;;;;;28.02;4.13;;;;;;;2.51;92.51;103318.22;4852359;29;20382;-65
2022/01/28 08:42:51;;;;;;;27.60;4.30;;;;;;;2.52;92.51;103336.56;4848137;29;20698;-64
2022/01/28 08:45:16;;;;;;;27.00;3.75;;;;;;;2.52;92.91;103323.50;4834252;29;20041;-64
2022/01/28 08:47:42;;;;;;;24.92;4.32;;;;;;;2.54;92.59;103318.28;4850679;29;20634;-64
2022/01/28 08:50:09;;;;;;;23.27;4.15;;;;;;;2.58;92.61;103330.59;4837010;29;20065;-64
2022/01/28 08:52:34;;;;;;;30.58;4.45;;;;;;;2.61;92.83;103324.59;4838700;29;20041;-64
2022/01/28 08:55:00;;;;;;;32.92;5.20;;;;;;;2.63;92.61;103320.28;4838674;29;20206;-64
2022/01/28 08:57:25;;;;;;;26.08;4.13;;;;;;;2.65;92.85;103324.69;4850314;29;20441;-64
2022/01/28 08:59:51;;;;;;;21.30;3.38;;;;;;;2.68;92.79;103329.13;4849695;29;20049;-65
2022/01/28 09:02:17;;;;;;;25.10;3.90;;;;;;;2.71;92.68;103331.81;4837482;29;20064;-68
2022/01/28 09:04:42;;;;;;;20.77;3.58;;;;;;;2.76;93.26;103329.31;4849633;29;20406;-67
2022/01/28 09:07:08;;;;;;;30.65;4.47;;;;;;;2.81;93.17;103336.47;4850883;29;20041;-65
2022/01/28 09:09:34;;;;;;;26.40;4.03;;;;;;;2.89;93.25;103338.41;4849784;29;21270;-65
2022/01/28 09:14:25;;;;;;;22.88;4.32;;;;;;;3.01;93.28;103343.97;4849922;29;20128;-65
2022/01/28 09:16:56;;;;;;;22.70;4.40;;;;;;;3.08;93.62;103345.91;4851334;29;20496;-65
2022/01/28 09:19:21;;;;;;;20.67;3.92;;;;;;;3.11;93.73;103351.22;4850051;29;20041;-65
2022/01/28 09:21:47;;;;;;;23.02;4.13;;;;;;;3.17;93.59;103360.97;4853350;29;21565;-65
2022/01/28 09:24:12;;;;;;;21.50;3.75;;;;;;;3.22;93.67;103367.19;4851324;29;20053;-65
2022/01/28 09:26:38;;;;;;;28.55;4.60;;;;;;;3.27;93.84;103354.22;4852959;29;20257;-64
2022/01/28 09:29:04;;;;;;;27.75;3.67;;;;;;;3.29;93.33;103355.16;4850671;29;20052;-65
2022/01/28 09:31:29;;;;;;;23.88;3.92;;;;;;;3.33;93.60;103354.38;4852072;29;20509;-64
2022/01/28 09:33:55;;;;;;;22.67;4.15;;;;;;;3.35;93.53;103350.09;4851110;29;20036;-64
2022/01/28 09:36:21;;;;;;;23.77;4.65;;;;;;;3.36;93.89;103351.84;4841661;29;20076;-64
2022/01/28 09:38:47;;;;;;;26.00;4.22;;;;;;;3.39;93.83;103351.03;4852047;29;20093;-64
2022/01/28 09:41:13;;;;;;;23.42;3.95;;;;;;;3.39;93.91;103349.28;4851792;29;20032;-64
2022/01/28 09:43:41;;;;;;;28.48;4.30;;;;;;;3.42;94.01;103352.84;4850793;29;20172;-64
2022/01/28 09:46:06;;;;;;;29.98;3.97;;;;;;;3.43;93.98;103355.50;4837941;29;20074;-64
2022/01/28 09:48:32;;;;;;;32.22;4.45;;;;;;;3.48;93.68;103355.63;4850126;29;21004;-70
2022/01/28 09:50:59;;;;;;;22.25;4.25;;;;;;;3.53;94.10;103368.00;4838009;29;20037;-67
2022/01/28 09:53:24;;;;;;;24.85;4.60;;;;;;;3.61;94.11;103368.19;4851354;29;20072;-65
2022/01/28 09:55:50;;;;;;;27.50;4.93;;;;;;;3.69;94.22;103367.47;4850244;29;20455;-67
2022/01/28 09:58:16;;;;;;;22.40;3.80;;;;;;;3.76;94.17;103372.03;4851635;29;20041;-66
2022/01/28 10:00:42;;;;;;;23.10;4.13;;;;;;;3.84;93.92;103380.94;4850449;29;20053;-65
2022/01/28 10:03:10;;;;;;;27.08;3.85;;;;;;;3.90;94.19;103369.69;4850029;29;20048;-66
2022/01/28 10:05:44;;;;;;;21.02;3.63;;;;;;;3.97;94.44;103391.72;4852278;29;20048;-65
2022/01/28 10:08:18;;;;;;;30.55;4.57;;;;;;;4.02;94.30;103401.44;4850937;29;20127;-66
2022/01/28 10:10:45;;;;;;;26.05;4.97;;;;;;;4.08;94.20;103401.59;4838210;29;20049;-66
2022/01/28 10:13:15;;;;;;;24.55;3.60;;;;;;;4.16;94.16;103391.28;4851338;29;20037;-66
2022/01/28 10:16:04;;;;;;;22.90;4.05;;;;;;;4.21;94.32;103388.75;4849758;29;20696;-66
2022/01/28 10:18:37;;;;;;;24.98;3.72;;;;;;;4.26;94.47;103394.09;4849845;29;20118;-65
2022/01/28 10:21:16;;;;;;;25.00;4.07;;;;;;;4.30;93.73;103388.94;4849684;29;20037;-65
2022/01/28 10:23:45;;;;;;;24.00;3.92;;;;;;;4.36;93.58;103388.19;4837174;29;20148;-64
2022/01/28 10:26:11;;;;;;;18.73;3.58;;;;;;;4.42;94.25;103395.31;4853182;29;20290;-64
2022/01/28 10:28:50;;;;;;;23.83;3.65;;;;;;;4.49;93.84;103405.97;4845247;29;20032;-65
2022/01/28 10:31:15;;;;;;;17.90;3.25;;;;;;;4.56;94.27;103398.22;4834017;29;20916;-64
2022/01/28 10:33:41;;;;;;;23.55;3.85;;;;;;;4.63;94.10;103394.88;4827813;29;20072;-64
2022/01/28 10:36:07;;;;;;;17.98;3.47;;;;;;;4.69;93.83;103378.38;4815517;29;20411;-64
2022/01/28 10:38:43;;;;;;;24.27;3.78;;;;;;;4.78;93.77;103382.94;4832535;29;20045;-64
2022/01/28 10:41:13;;;;;;;29.67;3.90;;;;;;;4.86;93.88;103384.81;4832565;29;20261;-64
2022/01/28 10:43:42;;;;;;;42.53;4.53;;;;;;;4.95;93.97;103380.63;4823212;29;20098;-64
2022/01/28 10:46:07;;;;;;;23.70;4.00;;;;;;;5.02;93.53;103372.00;4832446;29;20037;-64
2022/01/28 10:48:33;;;;;;;30.35;4.22;;;;;;;5.08;93.01;103371.22;4831624;29;20048;-64
2022/01/28 10:50:59;;;;;;;19.75;3.83;;;;;;;5.15;93.68;103381.88;4817484;29;20038;-65
2022/01/28 10:53:27;;;;;;;28.13;4.00;;;;;;;5.22;93.57;103387.25;4833386;29;20045;-65
2022/01/28 10:55:54;;;;;;;26.38;4.13;;;;;;;5.28;92.96;103379.44;4832341;29;20143;-64
2022/01/28 10:58:25;;;;;;;27.13;4.47;;;;;;;5.34;92.87;103373.44;4831614;29;20038;-65
2022/01/28 11:00:58;;;;;;;35.60;3.88;;;;;;;5.39;93.14;103372.66;4831170;29;20025;-65
2022/01/28 11:03:27;;;;;;;;;;;;;;;5.47;92.44;103369.25;4832194;29;20030;-65
2022/01/28 11:05:58;;;;;;;23.90;3.92;;;;;;;5.53;93.03;103364.13;4816335;29;19982;-65
2022/01/28 11:08:29;;;;;;;24.35;4.32;;;;;;;5.59;92.96;103361.59;4833199;29;20038;-65
2022/01/28 11:10:55;;;;;;;20.13;3.40;;;;;;;5.65;92.90;103363.41;4832364;29;20097;-65
2022/01/28 11:13:21;;;;;;;19.20;2.85;;;;;;;5.69;92.30;103355.63;4832512;29;20059;-65
2022/01/28 11:15:47;;;;;;;21.80;3.70;;;;;;;5.75;92.07;103359.19;4834450;29;20049;-65
2022/01/28 11:18:15;;;;;;;18.23;3.53;;;;;;;5.80;91.94;103358.41;4833612;29;20044;-65
2022/01/28 11:20:55;;;;;;;17.25;3.00;;;;;;;5.83;91.33;103350.56;4834022;29;20041;-65
2022/01/28 11:23:35;;;;;;;22.10;3.17;;;;;;;5.87;91.45;103354.13;4834391;29;20281;-65
2022/01/28 11:26:04;;;;;;;26.80;3.35;;;;;;;5.88;91.24;103355.00;4833846;29;20163;-65
2022/01/28 11:28:40;;;;;;;12.50;2.90;;;;;;;5.88;90.73;103349.75;4834039;29;20097;-65
2022/01/28 11:31:06;;;;;;;22.67;3.17;;;;;;;5.87;90.59;103348.84;4842394;29;20109;-65
2022/01/28 11:33:49;;;;;;;14.10;3.15;;;;;;;5.88;90.54;103349.75;4831171;29;20037;-64
2022/01/28 11:36:31;;;;;;;17.35;3.28;;;;;;;5.88;90.46;103342.72;4848202;29;20053;-64
2022/01/28 11:38:56;;;;;;;19.25;3.05;;;;;;;5.88;90.54;103334.84;4851633;29;20037;-64
2022/01/28 11:41:24;;;;;;;22.23;3.35;;;;;;;5.85;89.96;103329.56;4840040;29;20041;-65
2022/01/28 11:43:55;;;;;;;20.55;3.75;;;;;;;5.85;90.17;103321.66;4852904;29;20037;-65
2022/01/28 11:46:30;;;;;;;23.77;3.40;;;;;;;5.83;90.02;103313.75;4851371;29;20041;-65
2022/01/28 11:48:56;;;;;;;25.98;3.63;;;;;;;5.82;89.77;103314.63;4852268;29;20553;-65
2022/01/28 11:51:23;;;;;;;19.35;3.55;;;;;;;5.82;89.67;103309.34;4853997;29;20618;-65
2022/01/28 11:53:57;;;;;;;20.80;3.72;;;;;;;5.83;89.29;103315.50;4853921;29;20040;-65
2022/01/28 11:56:24;;;;;;;20.48;3.35;;;;;;;5.82;89.49;103325.13;4835747;29;20404;-65
2022/01/28 11:59:09;;;;;;;27.95;3.72;;;;;;;5.83;89.38;103321.63;4836692;29;20034;-65
2022/01/28 12:01:34;;;;;;;21.73;3.92;;;;;;;5.84;89.72;103305.00;4850109;29;20044;-65
2022/01/28 12:04:25;;;;;;;13.32;2.55;;;;;;;5.85;88.97;103319.91;4852610;29;20392;-65
2022/01/28 12:07:14;;;;;;;21.42;3.45;;;;;;;5.85;89.06;103327.78;4853659;29;20045;-65
2022/01/28 12:09:53;;;;;;;22.60;3.33;;;;;;;5.85;89.34;103308.53;4853226;29;20186;-65
2022/01/28 12:12:40;;;;;;;24.27;2.97;;;;;;;5.87;89.27;103303.28;4851232;29;20442;-65
2022/01/28 12:15:12;;;;;;;21.75;2.85;;;;;;;5.88;89.09;103305.06;4846809;29;20068;-65
2022/01/28 12:17:39;;;;;;;23.80;3.10;;;;;;;5.90;89.05;103298.06;4852767;29;20072;-64
2022/01/28 12:20:19;;;;;;;23.08;3.13;;;;;;;5.92;89.06;103296.31;4840746;29;20037;-64
2022/01/28 12:23:10;;;;;;;27.73;3.60;;;;;;;5.93;88.86;103295.47;4854016;29;20128;-64
2022/01/28 12:25:36;;;;;;;18.90;3.03;;;;;;;5.96;88.99;103303.41;4853077;29;20076;-64
2022/01/28 12:28:16;;;;;;;19.40;2.70;;;;;;;5.99;88.97;103300.81;4853102;29;20144;-64
2022/01/28 12:30:46;;;;;;;16.65;2.40;;;;;;;6.01;88.81;103291.22;4849567;29;20128;-70
2022/01/28 12:33:13;;;;;;;16.50;2.53;;;;;;;6.05;88.70;103287.78;4855130;29;20590;-65
2022/01/28 12:35:40;;;;;;;20.45;2.95;;;;;;;6.09;88.90;103292.22;4849147;29;20059;-65
2022/01/28 12:38:07;;;;;;;19.17;3.40;;;;;;;6.15;89.01;103282.66;4852673;29;20033;-65
2022/01/28 12:40:36;;;;;;;20.33;3.33;;;;;;;6.21;88.99;103274.81;4841717;29;20049;-65
2022/01/28 12:43:06;;;;;;;18.00;2.90;;;;;;;6.25;88.82;103269.63;4855655;29;20056;-64
2022/01/28 12:45:32;;;;;;;21.88;3.03;;;;;;;6.29;89.22;103257.38;4852444;29;20076;-67
2022/01/28 12:47:59;;;;;;;16.10;3.45;;;;;;;6.31;88.75;103260.91;4852561;29;20037;-67
2022/01/28 12:50:24;;;;;;;22.13;2.85;;;;;;;6.34;88.59;103252.16;4825868;29;20144;-67